sensor_id;sensor_type;location;lat;lon;timestamp;temperature;humidity
10572;DHT22;5334;48.928;12.704;2023-08-06T00:00:52;16.00;99.90
10572;DHT22;5334;48.928;12.704;2023-08-06T00:03:21;16.10;99.90
10572;DHT22;5334;48.928;12.704;2023-08-06T00:05:52;16.00;99.90
10572;DHT22;5334;48.928;12.704;2023-08-06T00:08:18;16.00;99.90
10572;DHT22;5334;48.928;12.704;2023-08-06T00:10:55;16.00;99.90
10572;DHT22;5334;48.928;12.704;2023-08-06T00:13:27;15.90;99.90
10572;DHT22;5334;48.928;12.704;2023-08-06T00:18:18;15.90;99.90
10572;DHT22;5334;48.928;12.704;2023-08-06T00:20:47;15.90;99.90
10572;DHT22;5334;48.928;12.704;2023-08-06T00:23:19;15.90;99.90
10572;DHT22;5334;48.928;12.704;2023-08-06T00:25:52;16.00;99.90
10572;DHT22;5334;48.928;12.704;2023-08-06T00:28:18;16.00;99.90
10572;DHT22;5334;48.928;12.704;2023-08-06T00:30:44;16.10;99.90
10572;DHT22;5334;48.928;12.704;2023-08-06T00:33:12;16.00;99.90
10572;DHT22;5334;48.928;12.704;2023-08-06T00:35:41;16.00;99.90
10572;DHT22;5334;48.928;12.704;2023-08-06T00:38:10;16.00;99.90
10572;DHT22;5334;48.928;12.704;2023-08-06T00:40:38;16.00;99.90
10572;DHT22;5334;48.928;12.704;2023-08-06T00:43:10;16.00;99.90
10572;DHT22;5334;48.928;12.704;2023-08-06T00:45:36;16.00;99.90
10572;DHT22;5334;48.928;12.704;2023-08-06T00:48:08;16.10;99.90
10572;DHT22;5334;48.928;12.704;2023-08-06T00:50:34;16.00;99.90
10572;DHT22;5334;48.928;12.704;2023-08-06T00:53:02;16.10;99.90
10572;DHT22;5334;48.928;12.704;2023-08-06T00:55:29;16.10;99.90
10572;DHT22;5334;48.928;12.704;2023-08-06T00:58:07;16.10;99.90
10572;DHT22;5334;48.928;12.704;2023-08-06T01:00:35;16.10;99.90
10572;DHT22;5334;48.928;12.704;2023-08-06T01:03:01;16.10;99.90
10572;DHT22;5334;48.928;12.704;2023-08-06T01:05:27;16.20;99.90
10572;DHT22;5334;48.928;12.704;2023-08-06T01:13:49;16.20;99.90
10572;DHT22;5334;48.928;12.704;2023-08-06T01:16:18;16.10;99.90
10572;DHT22;5334;48.928;12.704;2023-08-06T01:18:44;16.10;99.90
10572;DHT22;5334;48.928;12.704;2023-08-06T01:21:19;16.10;99.90
10572;DHT22;5334;48.928;12.704;2023-08-06T01:23:46;16.10;99.90
10572;DHT22;5334;48.928;12.704;2023-08-06T01:26:30;16.10;99.90
10572;DHT22;5334;48.928;12.704;2023-08-06T01:29:17;16.10;99.90
10572;DHT22;5334;48.928;12.704;2023-08-06T01:31:48;16.00;99.90
10572;DHT22;5334;48.928;12.704;2023-08-06T01:34:18;16.00;99.90
10572;DHT22;5334;48.928;12.704;2023-08-06T01:36:49;15.90;99.90
10572;DHT22;5334;48.928;12.704;2023-08-06T01:39:21;15.90;99.90
10572;DHT22;5334;48.928;12.704;2023-08-06T01:44:16;15.70;99.90
10572;DHT22;5334;48.928;12.704;2023-08-06T01:46:48;15.70;99.90
10572;DHT22;5334;48.928;12.704;2023-08-06T01:51:40;15.60;99.90
10572;DHT22;5334;48.928;12.704;2023-08-06T01:54:05;15.70;99.90
10572;DHT22;5334;48.928;12.704;2023-08-06T01:56:31;15.70;99.90
10572;DHT22;5334;48.928;12.704;2023-08-06T01:59:00;15.80;99.90
10572;DHT22;5334;48.928;12.704;2023-08-06T02:01:31;15.80;99.90
10572;DHT22;5334;48.928;12.704;2023-08-06T02:04:03;15.80;99.90
10572;DHT22;5334;48.928;12.704;2023-08-06T02:06:38;15.80;99.90
10572;DHT22;5334;48.928;12.704;2023-08-06T02:09:03;15.80;99.90
10572;DHT22;5334;48.928;12.704;2023-08-06T02:11:38;15.70;99.90
10572;DHT22;5334;48.928;12.704;2023-08-06T02:14:03;15.70;99.90
10572;DHT22;5334;48.928;12.704;2023-08-06T02:16:29;15.70;99.90
10572;DHT22;5334;48.928;12.704;2023-08-06T02:18:55;15.70;99.90
10572;DHT22;5334;48.928;12.704;2023-08-06T02:21:20;15.70;99.90
10572;DHT22;5334;48.928;12.704;2023-08-06T02:23:49;15.80;99.90
10572;DHT22;5334;48.928;12.704;2023-08-06T02:26:24;15.80;99.90
10572;DHT22;5334;48.928;12.704;2023-08-06T02:28:56;15.80;99.90
10572;DHT22;5334;48.928;12.704;2023-08-06T02:31:21;15.90;99.90
10572;DHT22;5334;48.928;12.704;2023-08-06T02:33:53;15.90;99.90
10572;DHT22;5334;48.928;12.704;2023-08-06T02:36:28;15.90;99.90
10572;DHT22;5334;48.928;12.704;2023-08-06T02:38:55;15.90;99.90
10572;DHT22;5334;48.928;12.704;2023-08-06T02:41:21;16.00;99.90
10572;DHT22;5334;48.928;12.704;2023-08-06T02:43:46;16.00;99.90
10572;DHT22;5334;48.928;12.704;2023-08-06T02:46:16;16.00;99.90
10572;DHT22;5334;48.928;12.704;2023-08-06T02:48:41;16.00;99.90
10572;DHT22;5334;48.928;12.704;2023-08-06T02:51:07;16.00;99.90
10572;DHT22;5334;48.928;12.704;2023-08-06T02:53:39;16.00;99.90
10572;DHT22;5334;48.928;12.704;2023-08-06T02:56:10;16.00;99.90
10572;DHT22;5334;48.928;12.704;2023-08-06T02:58:39;15.90;99.90
10572;DHT22;5334;48.928;12.704;2023-08-06T03:01:10;16.00;99.90
10572;DHT22;5334;48.928;12.704;2023-08-06T03:03:36;16.00;99.90
10572;DHT22;5334;48.928;12.704;2023-08-06T03:06:07;16.00;99.90
10572;DHT22;5334;48.928;12.704;2023-08-06T03:08:36;16.00;99.90
10572;DHT22;5334;48.928;12.704;2023-08-06T03:11:08;16.00;99.90
10572;DHT22;5334;48.928;12.704;2023-08-06T03:13:36;16.00;99.90
10572;DHT22;5334;48.928;12.704;2023-08-06T03:16:05;15.90;99.90
10572;DHT22;5334;48.928;12.704;2023-08-06T03:18:33;15.90;99.90
10572;DHT22;5334;48.928;12.704;2023-08-06T03:21:02;15.90;99.90
10572;DHT22;5334;48.928;12.704;2023-08-06T03:23:34;15.80;99.90
10572;DHT22;5334;48.928;12.704;2023-08-06T03:26:03;15.80;99.90
10572;DHT22;5334;48.928;12.704;2023-08-06T03:28:28;15.80;99.90
10572;DHT22;5334;48.928;12.704;2023-08-06T03:31:04;15.80;99.90
10572;DHT22;5334;48.928;12.704;2023-08-06T03:33:35;15.80;99.90
10572;DHT22;5334;48.928;12.704;2023-08-06T03:36:05;15.80;99.90
10572;DHT22;5334;48.928;12.704;2023-08-06T03:38:40;15.80;99.90
10572;DHT22;5334;48.928;12.704;2023-08-06T03:41:05;15.80;99.90
10572;DHT22;5334;48.928;12.704;2023-08-06T03:43:40;15.70;99.90
10572;DHT22;5334;48.928;12.704;2023-08-06T03:46:09;15.70;99.90
10572;DHT22;5334;48.928;12.704;2023-08-06T03:48:37;15.70;99.90
10572;DHT22;5334;48.928;12.704;2023-08-06T03:53:37;15.50;99.90
10572;DHT22;5334;48.928;12.704;2023-08-06T03:56:03;15.40;99.90
10572;DHT22;5334;48.928;12.704;2023-08-06T03:58:28;15.40;99.90
10572;DHT22;5334;48.928;12.704;2023-08-06T04:01:12;15.30;99.90
10572;DHT22;5334;48.928;12.704;2023-08-06T04:03:41;15.40;99.90
10572;DHT22;5334;48.928;12.704;2023-08-06T04:06:15;15.40;99.90
10572;DHT22;5334;48.928;12.704;2023-08-06T04:08:56;15.30;99.90
10572;DHT22;5334;48.928;12.704;2023-08-06T04:11:24;15.30;99.90
10572;DHT22;5334;48.928;12.704;2023-08-06T04:13:56;15.30;99.90
10572;DHT22;5334;48.928;12.704;2023-08-06T04:16:23;15.30;99.90
10572;DHT22;5334;48.928;12.704;2023-08-06T04:18:49;15.20;99.90
10572;DHT22;5334;48.928;12.704;2023-08-06T04:23:49;15.20;99.90
10572;DHT22;5334;48.928;12.704;2023-08-06T04:26:18;15.20;99.90
10572;DHT22;5334;48.928;12.704;2023-08-06T04:28:43;15.10;99.90
10572;DHT22;5334;48.928;12.704;2023-08-06T04:31:09;15.10;99.90
10572;DHT22;5334;48.928;12.704;2023-08-06T04:33:35;15.10;99.90
10572;DHT22;5334;48.928;12.704;2023-08-06T04:36:00;15.10;99.90
10572;DHT22;5334;48.928;12.704;2023-08-06T04:38:26;15.10;99.90
10572;DHT22;5334;48.928;12.704;2023-08-06T04:40:55;15.10;99.90
10572;DHT22;5334;48.928;12.704;2023-08-06T04:43:24;15.20;99.90
10572;DHT22;5334;48.928;12.704;2023-08-06T04:45:51;15.30;99.90
10572;DHT22;5334;48.928;12.704;2023-08-06T04:48:17;15.20;99.90
10572;DHT22;5334;48.928;12.704;2023-08-06T04:51:06;15.30;99.90
10572;DHT22;5334;48.928;12.704;2023-08-06T04:53:34;15.30;99.90
10572;DHT22;5334;48.928;12.704;2023-08-06T04:56:09;15.40;99.90
10572;DHT22;5334;48.928;12.704;2023-08-06T04:58:41;15.40;99.90
10572;DHT22;5334;48.928;12.704;2023-08-06T05:01:16;15.40;99.90
10572;DHT22;5334;48.928;12.704;2023-08-06T05:03:42;15.40;99.90
10572;DHT22;5334;48.928;12.704;2023-08-06T05:06:07;15.40;99.90
10572;DHT22;5334;48.928;12.704;2023-08-06T05:08:33;15.50;99.90
10572;DHT22;5334;48.928;12.704;2023-08-06T05:11:02;15.50;99.90
10572;DHT22;5334;48.928;12.704;2023-08-06T05:13:28;15.50;99.90
10572;DHT22;5334;48.928;12.704;2023-08-06T05:15:54;15.60;99.90
10572;DHT22;5334;48.928;12.704;2023-08-06T05:18:20;15.60;99.90
10572;DHT22;5334;48.928;12.704;2023-08-06T05:20:46;15.70;99.90
10572;DHT22;5334;48.928;12.704;2023-08-06T05:23:11;15.70;99.90
10572;DHT22;5334;48.928;12.704;2023-08-06T05:25:37;15.70;99.90
10572;DHT22;5334;48.928;12.704;2023-08-06T05:28:15;15.80;99.90
10572;DHT22;5334;48.928;12.704;2023-08-06T05:30:41;15.80;99.90
10572;DHT22;5334;48.928;12.704;2023-08-06T05:33:16;15.70;99.90
10572;DHT22;5334;48.928;12.704;2023-08-06T05:35:42;15.60;99.90
10572;DHT22;5334;48.928;12.704;2023-08-06T05:38:08;15.50;99.90
10572;DHT22;5334;48.928;12.704;2023-08-06T05:40:34;15.50;99.90
10572;DHT22;5334;48.928;12.704;2023-08-06T05:43:00;15.40;99.90
10572;DHT22;5334;48.928;12.704;2023-08-06T05:45:26;15.40;99.90
10572;DHT22;5334;48.928;12.704;2023-08-06T05:47:55;15.40;99.90
10572;DHT22;5334;48.928;12.704;2023-08-06T05:50:26;15.40;99.90
10572;DHT22;5334;48.928;12.704;2023-08-06T05:52:52;15.50;99.90
10572;DHT22;5334;48.928;12.704;2023-08-06T05:55:19;15.50;99.90
10572;DHT22;5334;48.928;12.704;2023-08-06T05:57:45;15.60;99.90
10572;DHT22;5334;48.928;12.704;2023-08-06T06:00:11;15.60;99.90
10572;DHT22;5334;48.928;12.704;2023-08-06T06:02:46;15.70;99.90
10572;DHT22;5334;48.928;12.704;2023-08-06T06:05:12;15.60;99.90
10572;DHT22;5334;48.928;12.704;2023-08-06T06:07:43;15.70;99.90
10572;DHT22;5334;48.928;12.704;2023-08-06T06:10:12;15.80;99.90
10572;DHT22;5334;48.928;12.704;2023-08-06T06:12:38;15.80;99.90
10572;DHT22;5334;48.928;12.704;2023-08-06T06:15:22;15.80;99.90
10572;DHT22;5334;48.928;12.704;2023-08-06T06:17:47;15.80;99.90
10572;DHT22;5334;48.928;12.704;2023-08-06T06:20:13;15.80;99.90
10572;DHT22;5334;48.928;12.704;2023-08-06T06:22:39;15.80;99.90
10572;DHT22;5334;48.928;12.704;2023-08-06T06:25:05;15.90;99.90
10572;DHT22;5334;48.928;12.704;2023-08-06T06:27:31;15.90;99.90
10572;DHT22;5334;48.928;12.704;2023-08-06T06:29:56;16.00;99.90
10572;DHT22;5334;48.928;12.704;2023-08-06T06:32:25;16.00;99.90
10572;DHT22;5334;48.928;12.704;2023-08-06T06:34:54;16.00;99.90
10572;DHT22;5334;48.928;12.704;2023-08-06T06:37:26;15.90;99.90
10572;DHT22;5334;48.928;12.704;2023-08-06T06:39:51;15.90;99.90
10572;DHT22;5334;48.928;12.704;2023-08-06T06:42:17;15.80;99.90
10572;DHT22;5334;48.928;12.704;2023-08-06T06:44:46;15.70;99.90
10572;DHT22;5334;48.928;12.704;2023-08-06T06:47:18;15.80;99.90
10572;DHT22;5334;48.928;12.704;2023-08-06T06:49:52;15.80;99.90
10572;DHT22;5334;48.928;12.704;2023-08-06T06:52:21;15.90;99.90
10572;DHT22;5334;48.928;12.704;2023-08-06T06:54:46;16.00;99.90
10572;DHT22;5334;48.928;12.704;2023-08-06T06:57:12;16.10;99.90
10572;DHT22;5334;48.928;12.704;2023-08-06T06:59:41;16.10;99.90
10572;DHT22;5334;48.928;12.704;2023-08-06T07:02:06;16.20;99.90
10572;DHT22;5334;48.928;12.704;2023-08-06T07:04:32;16.20;99.90
10572;DHT22;5334;48.928;12.704;2023-08-06T07:06:58;16.20;99.90
10572;DHT22;5334;48.928;12.704;2023-08-06T07:09:23;16.30;99.90
10572;DHT22;5334;48.928;12.704;2023-08-06T07:11:49;16.40;99.90
10572;DHT22;5334;48.928;12.704;2023-08-06T07:14:15;16.30;99.90
10572;DHT22;5334;48.928;12.704;2023-08-06T07:16:43;16.30;99.90
10572;DHT22;5334;48.928;12.704;2023-08-06T07:19:11;16.30;99.90
10572;DHT22;5334;48.928;12.704;2023-08-06T07:21:40;16.30;99.90
10572;DHT22;5334;48.928;12.704;2023-08-06T07:24:09;16.30;99.90
10572;DHT22;5334;48.928;12.704;2023-08-06T07:26:50;16.40;99.90
10572;DHT22;5334;48.928;12.704;2023-08-06T07:29:15;16.40;99.90
10572;DHT22;5334;48.928;12.704;2023-08-06T07:31:49;16.30;99.90
10572;DHT22;5334;48.928;12.704;2023-08-06T07:34:15;16.10;99.90
10572;DHT22;5334;48.928;12.704;2023-08-06T07:36:45;16.10;99.90
10572;DHT22;5334;48.928;12.704;2023-08-06T07:39:11;16.20;99.90
10572;DHT22;5334;48.928;12.704;2023-08-06T07:41:36;16.40;99.90
10572;DHT22;5334;48.928;12.704;2023-08-06T07:44:02;16.50;99.90
10572;DHT22;5334;48.928;12.704;2023-08-06T07:46:28;16.70;99.90
10572;DHT22;5334;48.928;12.704;2023-08-06T07:48:54;16.90;99.90
10572;DHT22;5334;48.928;12.704;2023-08-06T07:51:20;17.10;99.90
10572;DHT22;5334;48.928;12.704;2023-08-06T07:53:52;17.20;99.90
10572;DHT22;5334;48.928;12.704;2023-08-06T07:56:29;17.50;99.90
10572;DHT22;5334;48.928;12.704;2023-08-06T07:58:55;17.60;99.90
10572;DHT22;5334;48.928;12.704;2023-08-06T08:01:21;17.70;99.90
10572;DHT22;5334;48.928;12.704;2023-08-06T08:03:49;17.80;99.90
10572;DHT22;5334;48.928;12.704;2023-08-06T08:06:15;17.80;99.90
10572;DHT22;5334;48.928;12.704;2023-08-06T08:08:43;17.70;99.90
10572;DHT22;5334;48.928;12.704;2023-08-06T08:11:09;17.70;99.90
10572;DHT22;5334;48.928;12.704;2023-08-06T08:13:38;17.60;99.90
10572;DHT22;5334;48.928;12.704;2023-08-06T08:16:07;17.40;99.90
10572;DHT22;5334;48.928;12.704;2023-08-06T08:18:36;17.40;99.90
10572;DHT22;5334;48.928;12.704;2023-08-06T08:21:01;17.80;99.90
10572;DHT22;5334;48.928;12.704;2023-08-06T08:23:33;18.00;99.90
10572;DHT22;5334;48.928;12.704;2023-08-06T08:25:59;17.90;99.90
10572;DHT22;5334;48.928;12.704;2023-08-06T08:28:30;17.80;99.90
10572;DHT22;5334;48.928;12.704;2023-08-06T08:30:59;17.70;99.90
10572;DHT22;5334;48.928;12.704;2023-08-06T08:33:25;17.70;99.90
10572;DHT22;5334;48.928;12.704;2023-08-06T08:36:05;17.60;99.90
10572;DHT22;5334;48.928;12.704;2023-08-06T08:38:31;17.80;99.90
10572;DHT22;5334;48.928;12.704;2023-08-06T08:41:00;17.90;99.90
10572;DHT22;5334;48.928;12.704;2023-08-06T08:46:17;18.30;99.90
10572;DHT22;5334;48.928;12.704;2023-08-06T08:48:59;18.60;99.90
10572;DHT22;5334;48.928;12.704;2023-08-06T08:54:11;19.40;99.90
10572;DHT22;5334;48.928;12.704;2023-08-06T08:59:10;19.70;99.90
10572;DHT22;5334;48.928;12.704;2023-08-06T09:01:40;19.70;99.90
10572;DHT22;5334;48.928;12.704;2023-08-06T09:04:17;19.40;99.90
10572;DHT22;5334;48.928;12.704;2023-08-06T09:06:50;19.20;99.90
10572;DHT22;5334;48.928;12.704;2023-08-06T09:09:42;19.00;99.90
10572;DHT22;5334;48.928;12.704;2023-08-06T09:12:16;19.00;99.90
10572;DHT22;5334;48.928;12.704;2023-08-06T09:14:42;19.30;99.90
10572;DHT22;5334;48.928;12.704;2023-08-06T09:17:11;19.80;99.90
10572;DHT22;5334;48.928;12.704;2023-08-06T09:19:37;20.10;99.90
10572;DHT22;5334;48.928;12.704;2023-08-06T09:22:18;20.20;99.90
10572;DHT22;5334;48.928;12.704;2023-08-06T09:24:44;19.70;99.90
10572;DHT22;5334;48.928;12.704;2023-08-06T09:27:16;19.20;99.90
10572;DHT22;5334;48.928;12.704;2023-08-06T09:29:51;19.10;99.90
10572;DHT22;5334;48.928;12.704;2023-08-06T09:32:19;19.70;99.90
10572;DHT22;5334;48.928;12.704;2023-08-06T09:34:55;20.10;99.90
10572;DHT22;5334;48.928;12.704;2023-08-06T09:39:54;20.80;99.90
10572;DHT22;5334;48.928;12.704;2023-08-06T09:42:23;21.20;99.90
10572;DHT22;5334;48.928;12.704;2023-08-06T09:44:49;21.30;99.90
10572;DHT22;5334;48.928;12.704;2023-08-06T09:47:19;21.20;99.90
10572;DHT22;5334;48.928;12.704;2023-08-06T09:49:48;20.80;99.90
10572;DHT22;5334;48.928;12.704;2023-08-06T09:52:14;20.30;99.90
10572;DHT22;5334;48.928;12.704;2023-08-06T09:54:43;19.50;99.90
10572;DHT22;5334;48.928;12.704;2023-08-06T09:57:14;18.80;99.90
10572;DHT22;5334;48.928;12.704;2023-08-06T09:59:42;18.30;99.90
10572;DHT22;5334;48.928;12.704;2023-08-06T10:02:14;18.00;99.90
10572;DHT22;5334;48.928;12.704;2023-08-06T10:04:46;18.00;99.90
10572;DHT22;5334;48.928;12.704;2023-08-06T10:07:38;18.10;99.90
10572;DHT22;5334;48.928;12.704;2023-08-06T10:10:06;18.40;99.90
10572;DHT22;5334;48.928;12.704;2023-08-06T10:12:37;19.20;99.90
10572;DHT22;5334;48.928;12.704;2023-08-06T10:15:10;20.00;99.90
10572;DHT22;5334;48.928;12.704;2023-08-06T10:17:37;20.80;99.90
10572;DHT22;5334;48.928;12.704;2023-08-06T10:20:09;21.20;99.90
10572;DHT22;5334;48.928;12.704;2023-08-06T10:22:35;21.60;99.90
10572;DHT22;5334;48.928;12.704;2023-08-06T10:25:01;21.90;99.90
10572;DHT22;5334;48.928;12.704;2023-08-06T10:30:27;21.70;99.90
10572;DHT22;5334;48.928;12.704;2023-08-06T10:32:57;21.80;99.90
10572;DHT22;5334;48.928;12.704;2023-08-06T10:40:39;21.50;99.90
10572;DHT22;5334;48.928;12.704;2023-08-06T10:43:05;21.60;99.90
10572;DHT22;5334;48.928;12.704;2023-08-06T10:45:50;21.50;99.90
10572;DHT22;5334;48.928;12.704;2023-08-06T10:48:29;21.20;99.90
10572;DHT22;5334;48.928;12.704;2023-08-06T10:50:56;20.20;99.90
10572;DHT22;5334;48.928;12.704;2023-08-06T10:53:22;19.40;99.90
10572;DHT22;5334;48.928;12.704;2023-08-06T10:55:51;18.70;99.90
10572;DHT22;5334;48.928;12.704;2023-08-06T10:58:19;18.20;99.90
10572;DHT22;5334;48.928;12.704;2023-08-06T11:00:48;17.60;99.90
10572;DHT22;5334;48.928;12.704;2023-08-06T11:03:14;17.40;99.90
10572;DHT22;5334;48.928;12.704;2023-08-06T11:05:40;17.20;99.90
10572;DHT22;5334;48.928;12.704;2023-08-06T11:08:09;17.10;99.90
10572;DHT22;5334;48.928;12.704;2023-08-06T11:10:35;17.10;99.90
10572;DHT22;5334;48.928;12.704;2023-08-06T11:13:01;17.10;99.90
10572;DHT22;5334;48.928;12.704;2023-08-06T11:15:28;17.30;99.90
10572;DHT22;5334;48.928;12.704;2023-08-06T11:17:55;17.50;99.90
10572;DHT22;5334;48.928;12.704;2023-08-06T11:20:33;17.80;99.90
10572;DHT22;5334;48.928;12.704;2023-08-06T11:23:05;18.10;99.90
10572;DHT22;5334;48.928;12.704;2023-08-06T11:25:45;18.50;99.90
10572;DHT22;5334;48.928;12.704;2023-08-06T11:28:12;19.00;99.90
10572;DHT22;5334;48.928;12.704;2023-08-06T11:30:38;19.30;99.90
10572;DHT22;5334;48.928;12.704;2023-08-06T11:33:13;19.40;99.90
10572;DHT22;5334;48.928;12.704;2023-08-06T11:35:39;19.20;99.90
10572;DHT22;5334;48.928;12.704;2023-08-06T11:38:05;18.90;99.90
10572;DHT22;5334;48.928;12.704;2023-08-06T11:40:32;18.70;99.90
10572;DHT22;5334;48.928;12.704;2023-08-06T11:42:59;18.50;99.90
10572;DHT22;5334;48.928;12.704;2023-08-06T11:45:25;18.40;99.90
10572;DHT22;5334;48.928;12.704;2023-08-06T11:47:54;18.40;99.90
10572;DHT22;5334;48.928;12.704;2023-08-06T11:50:26;18.30;99.90
10572;DHT22;5334;48.928;12.704;2023-08-06T11:53:03;18.20;99.90
10572;DHT22;5334;48.928;12.704;2023-08-06T11:55:35;18.20;99.90
10572;DHT22;5334;48.928;12.704;2023-08-06T11:58:08;18.00;99.90
10572;DHT22;5334;48.928;12.704;2023-08-06T12:00:36;17.70;99.90
10572;DHT22;5334;48.928;12.704;2023-08-06T12:03:12;17.30;99.90
10572;DHT22;5334;48.928;12.704;2023-08-06T12:05:41;17.00;99.90
10572;DHT22;5334;48.928;12.704;2023-08-06T12:08:09;17.00;99.90
10572;DHT22;5334;48.928;12.704;2023-08-06T12:10:38;16.90;99.90
10572;DHT22;5334;48.928;12.704;2023-08-06T12:13:07;17.10;99.90
10572;DHT22;5334;48.928;12.704;2023-08-06T12:15:39;17.30;99.90
10572;DHT22;5334;48.928;12.704;2023-08-06T12:18:17;17.50;99.90
10572;DHT22;5334;48.928;12.704;2023-08-06T12:20:46;17.50;99.90
10572;DHT22;5334;48.928;12.704;2023-08-06T12:23:15;17.40;99.90
10572;DHT22;5334;48.928;12.704;2023-08-06T12:25:41;17.30;99.90
10572;DHT22;5334;48.928;12.704;2023-08-06T12:28:18;17.10;99.90
10572;DHT22;5334;48.928;12.704;2023-08-06T12:30:45;16.90;99.90
10572;DHT22;5334;48.928;12.704;2023-08-06T12:33:14;16.50;99.90
10572;DHT22;5334;48.928;12.704;2023-08-06T12:35:40;16.30;99.90
10572;DHT22;5334;48.928;12.704;2023-08-06T12:38:12;16.30;99.90
10572;DHT22;5334;48.928;12.704;2023-08-06T12:40:39;16.40;99.90
10572;DHT22;5334;48.928;12.704;2023-08-06T12:43:05;16.60;99.90
10572;DHT22;5334;48.928;12.704;2023-08-06T12:45:31;17.00;99.90
10572;DHT22;5334;48.928;12.704;2023-08-06T12:48:03;17.30;99.90
10572;DHT22;5334;48.928;12.704;2023-08-06T12:50:29;17.60;99.90
10572;DHT22;5334;48.928;12.704;2023-08-06T12:52:55;17.90;99.90
10572;DHT22;5334;48.928;12.704;2023-08-06T12:55:37;18.00;99.90
10572;DHT22;5334;48.928;12.704;2023-08-06T12:58:07;17.80;99.90
10572;DHT22;5334;48.928;12.704;2023-08-06T13:00:39;17.80;99.90
10572;DHT22;5334;48.928;12.704;2023-08-06T13:03:11;18.00;99.90
10572;DHT22;5334;48.928;12.704;2023-08-06T13:05:37;18.20;99.90
10572;DHT22;5334;48.928;12.704;2023-08-06T13:08:03;18.30;99.90
10572;DHT22;5334;48.928;12.704;2023-08-06T13:10:29;18.40;99.90
10572;DHT22;5334;48.928;12.704;2023-08-06T13:12:59;18.30;99.90
10572;DHT22;5334;48.928;12.704;2023-08-06T13:15:27;18.10;99.90
10572;DHT22;5334;48.928;12.704;2023-08-06T13:17:53;17.80;99.90
10572;DHT22;5334;48.928;12.704;2023-08-06T13:20:22;17.50;99.90
10572;DHT22;5334;48.928;12.704;2023-08-06T13:22:48;17.20;99.90
10572;DHT22;5334;48.928;12.704;2023-08-06T13:25:16;17.10;99.90
10572;DHT22;5334;48.928;12.704;2023-08-06T13:27:44;16.90;99.90
10572;DHT22;5334;48.928;12.704;2023-08-06T13:30:11;16.80;99.90
10572;DHT22;5334;48.928;12.704;2023-08-06T13:32:40;16.70;99.90
10572;DHT22;5334;48.928;12.704;2023-08-06T13:35:06;16.60;99.90
10572;DHT22;5334;48.928;12.704;2023-08-06T13:37:32;16.60;99.90
10572;DHT22;5334;48.928;12.704;2023-08-06T13:40:01;16.70;99.90
10572;DHT22;5334;48.928;12.704;2023-08-06T13:42:27;16.90;99.90
10572;DHT22;5334;48.928;12.704;2023-08-06T13:44:54;17.10;99.90
10572;DHT22;5334;48.928;12.704;2023-08-06T13:47:25;17.20;99.90
10572;DHT22;5334;48.928;12.704;2023-08-06T13:49:51;17.30;99.90
10572;DHT22;5334;48.928;12.704;2023-08-06T13:52:16;17.60;99.90
10572;DHT22;5334;48.928;12.704;2023-08-06T13:54:42;17.60;99.90
10572;DHT22;5334;48.928;12.704;2023-08-06T13:57:11;17.50;99.90
10572;DHT22;5334;48.928;12.704;2023-08-06T13:59:38;17.30;99.90
10572;DHT22;5334;48.928;12.704;2023-08-06T14:02:13;17.20;99.90
10572;DHT22;5334;48.928;12.704;2023-08-06T14:04:45;17.20;99.90
10572;DHT22;5334;48.928;12.704;2023-08-06T14:07:13;17.00;99.90
10572;DHT22;5334;48.928;12.704;2023-08-06T14:09:48;17.00;99.90
10572;DHT22;5334;48.928;12.704;2023-08-06T14:12:15;17.10;99.90
10572;DHT22;5334;48.928;12.704;2023-08-06T14:14:42;17.10;99.90
10572;DHT22;5334;48.928;12.704;2023-08-06T14:17:17;17.20;99.90
10572;DHT22;5334;48.928;12.704;2023-08-06T14:19:43;17.30;99.90
10572;DHT22;5334;48.928;12.704;2023-08-06T14:22:14;17.20;99.90
10572;DHT22;5334;48.928;12.704;2023-08-06T14:24:40;17.20;99.90
10572;DHT22;5334;48.928;12.704;2023-08-06T14:27:16;17.60;99.90
10572;DHT22;5334;48.928;12.704;2023-08-06T14:29:42;17.80;99.90
10572;DHT22;5334;48.928;12.704;2023-08-06T14:32:11;17.70;99.90
10572;DHT22;5334;48.928;12.704;2023-08-06T14:34:44;17.90;99.90
10572;DHT22;5334;48.928;12.704;2023-08-06T14:37:10;17.70;99.90
10572;DHT22;5334;48.928;12.704;2023-08-06T14:39:42;17.50;99.90
10572;DHT22;5334;48.928;12.704;2023-08-06T14:42:11;17.50;99.90
10572;DHT22;5334;48.928;12.704;2023-08-06T14:44:37;18.00;99.90
10572;DHT22;5334;48.928;12.704;2023-08-06T14:47:06;18.10;99.90
10572;DHT22;5334;48.928;12.704;2023-08-06T14:49:38;18.30;99.90
10572;DHT22;5334;48.928;12.704;2023-08-06T14:52:05;18.50;99.90
10572;DHT22;5334;48.928;12.704;2023-08-06T14:54:37;18.60;99.90
10572;DHT22;5334;48.928;12.704;2023-08-06T14:57:03;18.20;99.90
10572;DHT22;5334;48.928;12.704;2023-08-06T14:59:37;17.80;99.90
10572;DHT22;5334;48.928;12.704;2023-08-06T15:02:07;17.50;99.90
10572;DHT22;5334;48.928;12.704;2023-08-06T15:04:36;17.40;99.90
10572;DHT22;5334;48.928;12.704;2023-08-06T15:07:01;17.20;99.90
10572;DHT22;5334;48.928;12.704;2023-08-06T15:09:33;17.30;99.90
10572;DHT22;5334;48.928;12.704;2023-08-06T15:12:22;17.40;99.90
10572;DHT22;5334;48.928;12.704;2023-08-06T15:14:51;17.80;99.90
10572;DHT22;5334;48.928;12.704;2023-08-06T15:17:17;18.20;99.90
10572;DHT22;5334;48.928;12.704;2023-08-06T15:19:43;18.30;99.90
10572;DHT22;5334;48.928;12.704;2023-08-06T15:22:11;17.90;99.90
10572;DHT22;5334;48.928;12.704;2023-08-06T15:24:40;17.50;99.90
10572;DHT22;5334;48.928;12.704;2023-08-06T15:27:10;17.20;99.90
10572;DHT22;5334;48.928;12.704;2023-08-06T15:29:55;16.90;99.90
10572;DHT22;5334;48.928;12.704;2023-08-06T15:32:21;16.70;99.90
10572;DHT22;5334;48.928;12.704;2023-08-06T15:34:48;16.60;99.90
10572;DHT22;5334;48.928;12.704;2023-08-06T15:37:17;16.50;99.90
10572;DHT22;5334;48.928;12.704;2023-08-06T15:39:49;16.50;99.90
10572;DHT22;5334;48.928;12.704;2023-08-06T15:42:20;16.50;99.90
10572;DHT22;5334;48.928;12.704;2023-08-06T15:44:46;16.50;99.90
10572;DHT22;5334;48.928;12.704;2023-08-06T15:47:12;16.40;99.90
10572;DHT22;5334;48.928;12.704;2023-08-06T15:49:41;16.30;99.90
10572;DHT22;5334;48.928;12.704;2023-08-06T15:52:09;16.20;99.90
10572;DHT22;5334;48.928;12.704;2023-08-06T15:54:38;16.10;99.90
10572;DHT22;5334;48.928;12.704;2023-08-06T15:57:10;15.90;99.90
10572;DHT22;5334;48.928;12.704;2023-08-06T15:59:49;15.60;99.90
10572;DHT22;5334;48.928;12.704;2023-08-06T16:02:18;15.50;99.90
10572;DHT22;5334;48.928;12.704;2023-08-06T16:04:50;15.30;99.90
10572;DHT22;5334;48.928;12.704;2023-08-06T16:07:16;15.30;99.90
10572;DHT22;5334;48.928;12.704;2023-08-06T16:09:45;15.20;99.90
10572;DHT22;5334;48.928;12.704;2023-08-06T16:12:10;15.00;99.90
10572;DHT22;5334;48.928;12.704;2023-08-06T16:17:07;14.70;99.90
10572;DHT22;5334;48.928;12.704;2023-08-06T16:19:36;14.80;99.90
10572;DHT22;5334;48.928;12.704;2023-08-06T16:22:07;14.70;99.90